• Join FlightAware (Why Join?)
  • Login
  • US Flag GB Flag 
14:04 EDT


 

Airport Tracker/Info


-or-


 

Live Flight TrackerFlight Track Log ✈ N606FT ✈ 02-Nov-2013 ✈ X61 - KAPF

Flight Track Log - Related Links

Times and Time Zones

All times are in EDT time to prevent confusion due to time zone crossing. See the N606FT flight status page for this flight to view local times or setup timezone preferences in your user account.

Time Position Orientation Groundspeed Altitude Reporting Facility
EDT Latitude Longitude Course Direction KTS MPH feet Rate Location/Type
18:31 28.1333 -81.5333 183° South 78 90 3,600  Level Orlando TRACON
18:33 28.1053 -81.5475 204° Southwest 81 93 4,100 360 Climbing Miami Center
18:34 28.0822 -81.5467 178° South 81 93 4,500 240 Climbing Miami Center
18:35 28.0569 -81.5550 196° South 92 106 4,600  Climbing Miami Center
18:36 28.0297 -81.5608 191° South 97 112 4,500  Descending Miami Center
18:37 28.5786 -81.6382 183° South  Level Estimated
18:37 28.0022 -81.5669 191° South 97 112 4,600  Level Miami Center
18:38 27.9731 -81.5681 182° South 103 119 4,600  Level Miami Center
18:39 27.9439 -81.5692 182° South 103 119 4,600  Level Miami Center
18:40 27.9147 -81.5678 178° South 103 119 4,600  Level Miami Center
18:41 27.8875 -81.5692 183° South 103 119 4,600 -60 Level Miami Center
18:42 27.8581 -81.5725 186° South 103 119 4,500  Descending Miami Center
18:43 27.8308 -81.5761 187° South 103 119 4,600  Climbing Miami Center
18:44 27.8036 -81.5819 191° South 103 119 4,600  Level Miami Center
18:45 27.7764 -81.5856 187° South 103 119 4,600 -60 Level Miami Center
18:46 27.7489 -81.5917 191° South 103 119 4,500  Descending Miami Center
18:47 27.7236 -81.6022 200° South 103 119 4,600  Climbing Miami Center
18:48 27.6961 -81.6106 195° South 103 119 4,500  Descending Miami Center
18:49 27.6708 -81.6164 192° South 103 119 4,600  Climbing Miami Center
18:50 27.6414 -81.6247 194° South 103 119 4,500 -60 Descending Miami Center
18:51 27.6161 -81.6328 196° South 103 119 4,500  Level Miami Center
18:52 27.5889 -81.6364 187° South 103 119 4,500  Level Miami Center
18:53 27.5617 -81.6378 183° South 103 119 4,500  Level Miami Center
18:54 27.5344 -81.6436 191° South 103 119 4,500 -60 Level Miami Center
18:55 27.5072 -81.6472 187° South 103 119 4,400 -60 Descending Miami Center
18:56 27.4797 -81.6531 191° South 103 119 4,400  Level Miami Center
18:57 27.4547 -81.6567 187° South 103 119 4,400  Level Miami Center
18:58 27.4253 -81.6578 182° South 103 119 4,500 60 Climbing Miami Center
18:59 27.3961 -81.6564 178° South 103 119 4,600  Climbing Miami Center
19:00 27.3692 -81.6531 174° South 103 119 4,600  Level Miami Center
19:01 27.3400 -81.6517 178° South 103 119 4,600  Level Miami Center
19:02 27.3108 -81.6506 178° South 103 119 4,600  Level Miami Center
19:03 27.2839 -81.6472 174° South 103 119 4,600  Level Miami Center
19:04 27.2544 -81.6483 182° South 103 119 4,600  Level Miami Center
19:05 27.2272 -81.6517 186° South 103 119 4,600  Level Miami Center
19:06 27.1978 -81.6575 190° South 103 119 4,600  Level Miami Center
19:07 27.1706 -81.6611 187° South 103 119 4,600 -60 Level Miami Center
19:08 27.1411 -81.6669 190° South 103 119 4,500 -60 Descending Miami Center
19:09 27.1139 -81.6706 187° South 103 119 4,500  Level Miami Center
19:10 27.0844 -81.6761 190° South 103 119 4,500  Level Miami Center
19:11 27.0572 -81.6819 191° South 103 119 4,500  Level Miami Center
19:12 27.0300 -81.6833 183° South 103 119 4,600  Climbing Miami Center
19:13 27.0008 -81.6867 186° South 103 119 4,500  Descending Miami Center
19:14 26.9714 -81.6903 186° South 103 119 4,600 60 Climbing Miami Center
19:16 26.9100 -81.6959 185° South  Level FlightAware Approximate
19:23 26.6667 -81.7182 185° South  Level FlightAware Approximate
19:24 26.6319 -81.7213 185° South  Level FlightAware Approximate
19:25 26.5971 -81.7245 185° South  Level FlightAware Approximate
19:26 26.5624 -81.7277 185° South  Level FlightAware Approximate
19:27 26.5276 -81.7308 185° South  Level FlightAware Approximate
19:28 26.4928 -81.7340 185° South  Level FlightAware Approximate
19:29 26.4581 -81.7372 185° South  Level FlightAware Approximate
19:30 26.4233 -81.7403 185° South  Level FlightAware Approximate
19:31 26.3886 -81.7435 185° South  Level FlightAware Approximate
19:32 26.3538 -81.7466 185° South  Level FlightAware Approximate
19:33 26.3190 -81.7498 185° South  Level FlightAware Approximate
19:34 26.2836 -81.7500 180° South  Level FlightAware Approximate
19:35 26.2487 -81.7500 180° South  Level FlightAware Approximate
19:36 26.2141 -81.7538 190° South  Level FlightAware Approximate
19:37 26.1798 -81.7607 190° South  Level FlightAware Approximate
19:38 26.1500 -81.7667 190° South  Level FlightAware Approximate
19:39 26.1524 -81.7756 190° South  Level Estimated
19:40 26.1524 -81.7756 190° South  Level Estimated
19:41 26.1524 -81.7756 190° South  Level Estimated
19:42 26.1524 -81.7756 190° South  Level Estimated
19:43 26.1524 -81.7756 190° South  Level Estimated
19:44 26.1524 -81.7756 190° South  Level Estimated
19:45 26.1524 -81.7756 190° South  Level Estimated
19:46 26.1524 -81.7756 190° South  Level Estimated
19:47 26.1524 -81.7756 190° South  Level Estimated
19:48 26.1524 -81.7756 190° South  Level Estimated
19:49 26.1524 -81.7756 190° South  Level Estimated
19:50 26.1524 -81.7756 190° South  Level Estimated
19:51 26.1524 -81.7756 190° South  Level Estimated
19:52 26.1524 -81.7756 190° South  Level Estimated